createdAt,value
2023-04-27T00:00:38.123Z,315.30
2023-04-27T00:01:37.274Z,315.91
2023-04-27T00:02:38.228Z,317.43
2023-04-27T00:03:38.170Z,318.36
2023-04-27T00:04:36.799Z,318.36
2023-04-27T00:05:37.357Z,318.98
2023-04-27T00:06:38.051Z,319.60
2023-04-27T00:07:38.017Z,320.22
2023-04-27T00:08:38.023Z,318.36
2023-04-27T00:09:38.016Z,319.29
2023-04-27T00:10:37.988Z,319.29
2023-04-27T00:11:37.251Z,321.16
2023-04-27T00:12:37.281Z,321.79
2023-04-27T00:13:37.975Z,322.74
2023-04-27T00:14:37.928Z,322.11
2023-04-27T00:15:37.929Z,320.85
2023-04-27T00:16:37.954Z,324.66
2023-04-27T00:17:37.947Z,322.74
2023-04-27T00:18:37.874Z,322.42
2023-04-27T00:19:37.861Z,325.62
2023-04-27T00:20:36.399Z,323.06
2023-04-27T00:21:36.887Z,322.11
2023-04-27T00:22:37.834Z,322.42
2023-04-27T00:23:37.801Z,324.98
2023-04-27T00:24:37.800Z,322.42
2023-04-27T00:25:37.785Z,324.34
2023-04-27T00:26:37.761Z,325.62
2023-04-27T00:27:37.772Z,324.34
2023-04-27T00:28:36.286Z,324.66
2023-04-27T00:29:37.718Z,326.27
2023-04-27T00:30:37.724Z,322.42
2023-04-27T00:31:37.786Z,323.38
2023-04-27T00:32:37.732Z,324.34
2023-04-27T00:33:37.680Z,321.79
2023-04-27T00:34:37.656Z,323.70
2023-04-27T00:35:37.651Z,322.11
2023-04-27T00:36:36.189Z,322.74
2023-04-27T00:37:37.646Z,324.98
2023-04-27T00:38:37.620Z,325.62
2023-04-27T00:39:37.597Z,324.02
2023-04-27T00:40:37.590Z,322.74
2023-04-27T00:41:37.568Z,323.38
2023-04-27T00:42:37.570Z,322.42
2023-04-27T00:43:37.533Z,321.16
2023-04-27T00:44:36.119Z,320.85
2023-04-27T00:45:37.592Z,319.91
2023-04-27T00:46:37.494Z,320.22
2023-04-27T00:47:37.552Z,321.16
2023-04-27T00:48:37.478Z,319.29
2023-04-27T00:49:37.461Z,320.54
2023-04-27T00:50:37.439Z,320.85
2023-04-27T00:51:37.420Z,319.91
2023-04-27T00:52:37.420Z,320.85
2023-04-27T00:53:37.431Z,315.30
2023-04-27T00:54:37.358Z,318.67
2023-04-27T00:55:37.378Z,315.60
2023-04-27T00:56:37.368Z,316.52
2023-04-27T00:57:37.384Z,315.91
2023-04-27T00:58:37.349Z,315.30
2023-04-27T00:59:37.324Z,314.39
2023-04-27T01:00:36.136Z,315.91
2023-04-27T01:01:37.362Z,313.49
2023-04-27T01:02:36.021Z,314.09
2023-04-27T01:03:37.377Z,314.09
2023-04-27T01:04:37.383Z,312.00
2023-04-27T01:05:37.255Z,312.60
2023-04-27T01:06:37.261Z,312.30
2023-04-27T01:07:37.233Z,313.49
2023-04-27T01:08:35.800Z,312.89
2023-04-27T01:09:36.101Z,311.11
2023-04-27T01:10:37.189Z,312.00
2023-04-27T01:11:37.176Z,311.11
2023-04-27T01:12:37.170Z,310.23
2023-04-27T01:13:37.191Z,310.52
2023-04-27T01:14:37.127Z,308.48
2023-04-27T01:15:37.122Z,309.64
2023-04-27T01:16:35.689Z,308.19
2023-04-27T01:17:37.185Z,306.46
2023-04-27T01:18:37.083Z,305.61
2023-04-27T01:19:37.072Z,305.89
2023-04-27T01:20:35.724Z,304.19
2023-04-27T01:21:37.057Z,305.89
2023-04-27T01:22:37.034Z,303.63
2023-04-27T01:23:37.004Z,301.67
2023-04-27T01:24:35.848Z,303.35
2023-04-27T01:25:36.983Z,303.35
2023-04-27T01:26:36.980Z,303.35
2023-04-27T01:27:36.975Z,303.07
2023-04-27T01:28:37.013Z,304.76
2023-04-27T01:29:35.978Z,303.63
2023-04-27T01:30:36.921Z,302.79
2023-04-27T01:31:37.042Z,303.35
2023-04-27T01:32:36.990Z,301.40
2023-04-27T01:33:36.872Z,301.40
2023-04-27T01:34:36.857Z,302.79
2023-04-27T01:35:36.850Z,302.51
2023-04-27T01:36:36.828Z,301.67
2023-04-27T01:37:36.833Z,301.95
2023-04-27T01:38:36.798Z,301.67
2023-04-27T01:39:36.786Z,300.29
2023-04-27T01:40:36.782Z,302.23
2023-04-27T01:41:36.775Z,298.38
2023-04-27T01:42:36.766Z,300.84
2023-04-27T01:43:36.778Z,301.95
2023-04-27T01:44:36.742Z,301.67
2023-04-27T01:45:36.721Z,300.29
2023-04-27T01:46:36.777Z,301.40
2023-04-27T01:47:36.736Z,301.40
2023-04-27T01:48:36.674Z,301.67
2023-04-27T01:49:36.646Z,301.12
2023-04-27T01:50:36.638Z,300.84
2023-04-27T01:51:36.634Z,300.84
2023-04-27T01:52:36.631Z,301.40
2023-04-27T01:53:36.618Z,302.79
2023-04-27T01:54:36.591Z,302.51
2023-04-27T01:55:36.566Z,301.12
2023-04-27T01:56:36.567Z,300.84
2023-04-27T01:57:36.553Z,300.29
2023-04-27T01:58:36.540Z,299.74
2023-04-27T01:59:36.552Z,299.74
2023-04-27T02:00:36.509Z,298.38
2023-04-27T02:01:36.535Z,297.30
2023-04-27T02:02:36.662Z,298.93
2023-04-27T02:03:36.600Z,298.93
2023-04-27T02:04:36.851Z,296.76
2023-04-27T02:05:36.452Z,295.96
2023-04-27T02:06:36.457Z,294.90
2023-04-27T02:07:36.512Z,295.43
2023-04-27T02:08:36.452Z,295.16
2023-04-27T02:09:36.422Z,295.16
2023-04-27T02:10:36.382Z,295.96
2023-04-27T02:11:36.371Z,297.03
2023-04-27T02:12:34.910Z,297.57
2023-04-27T02:13:36.338Z,294.37
2023-04-27T02:14:35.255Z,293.84
2023-04-27T02:15:36.313Z,293.84
2023-04-27T02:16:36.404Z,294.63
2023-04-27T02:17:35.374Z,293.05
2023-04-27T02:18:36.292Z,292.79
2023-04-27T02:19:35.545Z,293.31
2023-04-27T02:20:35.363Z,292.53
2023-04-27T02:21:36.236Z,292.27
2023-04-27T02:22:35.372Z,293.58
2023-04-27T02:23:36.205Z,293.05
2023-04-27T02:24:36.189Z,292.79
2023-04-27T02:25:36.192Z,293.84
2023-04-27T02:26:36.163Z,293.05
2023-04-27T02:27:35.372Z,292.79
2023-04-27T02:28:36.126Z,292.53
2023-04-27T02:29:36.129Z,291.75
2023-04-27T02:30:34.657Z,293.31
2023-04-27T02:31:36.160Z,294.10
2023-04-27T02:32:36.120Z,292.01
2023-04-27T02:33:36.069Z,293.58
2023-04-27T02:34:35.364Z,291.49
2023-04-27T02:35:35.354Z,292.79
2023-04-27T02:36:36.052Z,293.05
2023-04-27T02:37:36.038Z,292.27
2023-04-27T02:38:35.993Z,293.58
2023-04-27T02:39:35.996Z,292.27
2023-04-27T02:40:35.295Z,288.92
2023-04-27T02:41:35.959Z,289.94
2023-04-27T02:42:35.962Z,289.94
2023-04-27T02:43:35.229Z,290.71
2023-04-27T02:44:35.932Z,290.20
2023-04-27T02:45:35.909Z,289.69
2023-04-27T02:46:35.920Z,288.16
2023-04-27T02:47:35.919Z,288.67
2023-04-27T02:48:35.470Z,287.66
2023-04-27T02:49:37.973Z,286.15
2023-04-27T02:50:35.840Z,288.42
2023-04-27T02:51:34.400Z,288.16
2023-04-27T02:52:35.834Z,286.40
2023-04-27T02:53:35.784Z,288.42
2023-04-27T02:54:35.772Z,288.67
2023-04-27T02:55:35.772Z,287.91
2023-04-27T02:56:35.746Z,288.67
2023-04-27T02:57:35.762Z,286.65
2023-04-27T02:58:35.727Z,288.67
2023-04-27T02:59:35.697Z,286.65
2023-04-27T03:00:35.685Z,289.94
2023-04-27T03:01:35.780Z,288.42
2023-04-27T03:02:35.742Z,289.94
2023-04-27T03:03:35.756Z,289.69
2023-04-27T03:04:35.685Z,287.40
2023-04-27T03:05:35.643Z,288.42
2023-04-27T03:06:35.604Z,288.92
2023-04-27T03:07:34.153Z,287.66
2023-04-27T03:08:35.586Z,287.91
2023-04-27T03:09:35.569Z,287.66
2023-04-27T03:10:35.555Z,289.43
2023-04-27T03:11:37.359Z,287.15
2023-04-27T03:12:35.535Z,287.91
2023-04-27T03:13:35.520Z,286.15
2023-04-27T03:14:35.492Z,286.15
2023-04-27T03:15:35.473Z,285.40
2023-04-27T03:16:35.523Z,284.42
2023-04-27T03:17:35.530Z,284.42
2023-04-27T03:18:35.442Z,284.91
2023-04-27T03:19:35.420Z,286.90
2023-04-27T03:20:35.420Z,284.17
2023-04-27T03:21:35.412Z,283.68
2023-04-27T03:22:35.369Z,284.66
2023-04-27T03:23:33.928Z,287.40
2023-04-27T03:24:35.362Z,286.90
2023-04-27T03:25:35.338Z,288.92
2023-04-27T03:26:34.195Z,287.15
2023-04-27T03:27:35.338Z,287.40
2023-04-27T03:28:34.201Z,289.43
2023-04-27T03:29:35.312Z,289.69
2023-04-27T03:30:34.219Z,290.20
2023-04-27T03:31:34.245Z,288.16
2023-04-27T03:32:34.240Z,290.46
2023-04-27T03:33:35.285Z,288.67
2023-04-27T03:34:35.243Z,289.69
2023-04-27T03:35:35.216Z,289.94
2023-04-27T03:36:35.193Z,288.42
2023-04-27T03:37:35.185Z,289.94
2023-04-27T03:38:35.189Z,288.16
2023-04-27T03:39:33.708Z,289.18
2023-04-27T03:40:35.143Z,288.67
2023-04-27T03:41:35.132Z,289.18
2023-04-27T03:42:35.127Z,288.92
2023-04-27T03:43:35.108Z,289.18
2023-04-27T03:44:35.107Z,288.67
2023-04-27T03:45:35.178Z,289.69
2023-04-27T03:46:35.233Z,290.71
2023-04-27T03:47:35.099Z,290.97
2023-04-27T03:48:35.027Z,289.43
2023-04-27T03:49:35.024Z,289.94
2023-04-27T03:50:35.012Z,289.69
2023-04-27T03:51:34.985Z,289.69
2023-04-27T03:52:35.000Z,288.42
2023-04-27T03:53:34.991Z,290.20
2023-04-27T03:54:34.954Z,288.16
2023-04-27T03:55:33.499Z,288.16
2023-04-27T03:56:34.924Z,288.92
2023-04-27T03:57:34.926Z,289.18
2023-04-27T03:58:34.905Z,287.66
2023-04-27T03:59:34.878Z,289.43
2023-04-27T04:00:34.865Z,288.67
2023-04-27T04:01:34.858Z,288.67
2023-04-27T04:02:34.906Z,287.40
2023-04-27T04:03:33.535Z,288.16
2023-04-27T04:04:35.026Z,287.91
2023-04-27T04:05:34.822Z,289.94
2023-04-27T04:06:34.787Z,289.69
2023-04-27T04:07:34.773Z,287.66
2023-04-27T04:08:34.773Z,286.65
2023-04-27T04:09:34.774Z,288.92
2023-04-27T04:10:34.730Z,287.15
2023-04-27T04:11:33.266Z,287.91
2023-04-27T04:12:34.707Z,287.15
2023-04-27T04:13:34.718Z,286.90
2023-04-27T04:14:34.684Z,290.20
2023-04-27T04:15:34.682Z,287.91
2023-04-27T04:16:34.675Z,287.40
2023-04-27T04:17:34.653Z,288.92
2023-04-27T04:18:34.626Z,287.66
2023-04-27T04:19:33.462Z,287.15
2023-04-27T04:20:34.587Z,287.40
2023-04-27T04:21:34.583Z,286.15
2023-04-27T04:22:34.560Z,286.90
2023-04-27T04:23:34.558Z,288.42
2023-04-27T04:24:34.551Z,285.40
2023-04-27T04:25:34.534Z,287.15
2023-04-27T04:26:34.527Z,285.65
2023-04-27T04:27:33.049Z,285.40
2023-04-27T04:28:34.489Z,285.90
2023-04-27T04:29:34.493Z,286.65
2023-04-27T04:30:34.472Z,289.18
2023-04-27T04:31:34.482Z,285.65
2023-04-27T04:32:34.490Z,286.65
2023-04-27T04:33:34.437Z,287.40
2023-04-27T04:34:33.181Z,287.91
2023-04-27T04:35:33.220Z,287.40
2023-04-27T04:36:34.390Z,286.90
2023-04-27T04:37:34.414Z,286.15
2023-04-27T04:38:34.376Z,287.66
2023-04-27T04:39:34.352Z,288.92
2023-04-27T04:40:34.324Z,287.66
2023-04-27T04:41:33.372Z,290.20
2023-04-27T04:42:34.307Z,289.69
2023-04-27T04:43:34.326Z,290.20
2023-04-27T04:44:34.289Z,289.69
2023-04-27T04:45:34.281Z,290.97
2023-04-27T04:46:33.540Z,291.75
2023-04-27T04:47:34.367Z,291.23
2023-04-27T04:48:34.258Z,292.01
2023-04-27T04:49:34.216Z,289.69
2023-04-27T04:50:33.203Z,291.23
2023-04-27T04:51:32.733Z,292.79
2023-04-27T04:52:34.184Z,294.63
2023-04-27T04:53:34.189Z,292.53
2023-04-27T04:54:34.160Z,294.37
2023-04-27T04:55:34.140Z,295.43
2023-04-27T04:56:34.121Z,295.69
2023-04-27T04:57:34.154Z,296.49
2023-04-27T04:58:34.118Z,296.23
2023-04-27T04:59:34.128Z,298.38
2023-04-27T05:00:34.094Z,295.69
2023-04-27T05:01:34.103Z,299.47
2023-04-27T05:02:34.161Z,295.69
2023-04-27T05:03:34.249Z,297.57
2023-04-27T05:04:34.075Z,297.57
2023-04-27T05:05:34.006Z,296.23
2023-04-27T05:06:33.307Z,294.63
2023-04-27T05:07:32.526Z,295.96
2023-04-27T05:08:33.996Z,293.58
2023-04-27T05:09:33.955Z,294.10
2023-04-27T05:10:33.951Z,293.05
2023-04-27T05:11:33.936Z,295.96
2023-04-27T05:12:33.912Z,293.05
2023-04-27T05:13:33.932Z,288.42
2023-04-27T05:14:33.902Z,288.16
2023-04-27T05:15:33.875Z,290.46
2023-04-27T05:16:34.060Z,286.40
2023-04-27T05:17:33.865Z,287.91
2023-04-27T05:18:33.880Z,286.40
2023-04-27T05:19:33.826Z,285.16
2023-04-27T05:20:33.800Z,286.40
2023-04-27T05:21:33.791Z,285.65
2023-04-27T05:22:33.777Z,282.21
2023-04-27T05:23:33.769Z,280.77
2023-04-27T05:24:33.750Z,280.05
2023-04-27T05:25:33.736Z,280.05
2023-04-27T05:26:33.725Z,280.05
2023-04-27T05:27:33.713Z,276.74
2023-04-27T05:28:33.716Z,274.65
2023-04-27T05:29:33.677Z,272.15
2023-04-27T05:30:33.673Z,273.51
2023-04-27T05:31:33.735Z,268.14
2023-04-27T05:32:33.742Z,270.58
2023-04-27T05:33:33.632Z,268.36
2023-04-27T05:34:33.612Z,265.97
2023-04-27T05:35:33.595Z,265.97
2023-04-27T05:36:33.618Z,265.33
2023-04-27T05:37:33.605Z,262.36
2023-04-27T05:38:32.304Z,261.94
2023-04-27T05:39:33.551Z,259.04
2023-04-27T05:40:33.527Z,258.84
2023-04-27T05:41:33.525Z,258.84
2023-04-27T05:42:32.102Z,258.23
2023-04-27T05:43:33.497Z,253.44
2023-04-27T05:44:32.248Z,249.39
2023-04-27T05:45:33.574Z,246.21
2023-04-27T05:46:32.256Z,245.29
2023-04-27T05:47:31.993Z,244.20
2023-04-27T05:48:33.426Z,246.58
2023-04-27T05:49:33.445Z,246.95
2023-04-27T05:50:33.388Z,247.33
2023-04-27T05:51:33.381Z,250.35
2023-04-27T05:52:32.311Z,253.64
2023-04-27T05:53:32.269Z,255.41
2023-04-27T05:54:33.336Z,257.82
2023-04-27T05:55:31.881Z,260.27
2023-04-27T05:56:33.313Z,261.31
2023-04-27T05:57:33.293Z,265.11
2023-04-27T05:58:33.297Z,270.80
2023-04-27T05:59:32.804Z,274.42
2023-04-27T06:00:32.270Z,279.09
2023-04-27T06:01:33.254Z,282.21
2023-04-27T06:02:32.509Z,284.66
2023-04-27T06:03:31.870Z,289.43
2023-04-27T06:04:33.317Z,289.18
2023-04-27T06:05:33.451Z,292.01
2023-04-27T06:06:33.177Z,293.05
2023-04-27T06:07:33.160Z,297.30
2023-04-27T06:08:33.161Z,301.40
2023-04-27T06:09:33.134Z,303.63
2023-04-27T06:10:33.117Z,303.07
2023-04-27T06:11:33.098Z,302.51
2023-04-27T06:12:33.139Z,298.11
2023-04-27T06:13:33.107Z,294.37
2023-04-27T06:14:33.079Z,291.23
2023-04-27T06:15:32.105Z,288.16
2023-04-27T06:16:33.188Z,284.66
2023-04-27T06:17:33.059Z,284.17
2023-04-27T06:18:33.016Z,285.40
2023-04-27T06:19:31.562Z,286.15
2023-04-27T06:20:33.014Z,288.16
2023-04-27T06:21:32.981Z,289.18
2023-04-27T06:22:32.575Z,293.31
2023-04-27T06:23:33.001Z,297.84
2023-04-27T06:24:32.957Z,305.89
2023-04-27T06:25:32.937Z,311.11
2023-04-27T06:26:32.918Z,313.79
2023-04-27T06:27:32.929Z,320.54
2023-04-27T06:28:32.882Z,325.30
2023-04-27T06:29:32.885Z,327.58
2023-04-27T06:30:32.863Z,329.88
2023-04-27T06:31:32.907Z,337.69
2023-04-27T06:32:32.849Z,346.24
2023-04-27T06:33:32.817Z,349.19
2023-04-27T06:34:32.796Z,359.52
2023-04-27T06:35:31.332Z,355.62
2023-04-27T06:36:32.818Z,367.16
2023-04-27T06:37:32.881Z,370.90
2023-04-27T06:38:32.756Z,373.01
2023-04-27T06:39:32.745Z,375.57
2023-04-27T06:40:32.732Z,386.79
2023-04-27T06:41:32.715Z,387.69
2023-04-27T06:42:32.702Z,394.34
2023-04-27T06:43:31.575Z,401.22
2023-04-27T06:44:32.684Z,408.35
2023-04-27T06:45:32.154Z,411.37
2023-04-27T06:46:32.781Z,417.55
2023-04-27T06:47:32.629Z,423.12
2023-04-27T06:48:32.629Z,432.73
2023-04-27T06:49:32.626Z,444.85
2023-04-27T06:50:32.585Z,453.01
2023-04-27T06:51:31.113Z,457.67
2023-04-27T06:52:32.555Z,461.16
2023-04-27T06:53:32.560Z,466.64
2023-04-27T06:54:32.546Z,474.28
2023-04-27T06:55:32.513Z,479.74
2023-04-27T06:56:32.519Z,482.16
2023-04-27T06:57:32.509Z,483.56
2023-04-27T06:58:31.346Z,487.10
2023-04-27T06:59:32.460Z,485.68
2023-04-27T07:00:32.449Z,489.60
2023-04-27T07:01:32.472Z,492.13
2023-04-27T07:02:32.476Z,489.24
2023-04-27T07:03:32.534Z,486.39
2023-04-27T07:04:32.432Z,492.49
2023-04-27T07:05:32.373Z,492.86
2023-04-27T07:06:30.965Z,501.38
2023-04-27T07:07:30.987Z,509.03
2023-04-27T07:08:31.852Z,520.56
2023-04-27T07:09:32.856Z,520.15
2023-04-27T07:10:30.966Z,526.31
2023-04-27T07:11:31.792Z,534.75
2023-04-27T07:12:31.806Z,547.93
2023-04-27T07:13:30.991Z,545.24
2023-04-27T07:14:30.988Z,554.77
2023-04-27T07:15:31.771Z,558.96
2023-04-27T07:16:31.854Z,568.48
2023-04-27T07:17:31.951Z,570.43
2023-04-27T07:18:31.710Z,570.43
2023-04-27T07:19:31.692Z,582.90
2023-04-27T07:20:31.685Z,582.90
2023-04-27T07:21:30.983Z,589.08
2023-04-27T07:22:30.774Z,588.55
2023-04-27T07:23:32.132Z,589.08
2023-04-27T07:24:30.986Z,595.39
2023-04-27T07:25:32.102Z,596.99
2023-04-27T07:26:32.096Z,613.46
2023-04-27T07:27:32.079Z,618.01
2023-04-27T07:28:32.071Z,622.05
2023-04-27T07:29:32.505Z,624.38
2023-04-27T07:30:30.637Z,630.28
2023-04-27T07:31:32.060Z,629.68
2023-04-27T07:32:32.028Z,633.87
2023-04-27T07:33:31.992Z,627.90
2023-04-27T07:34:41.205Z,625.55
2023-04-27T07:35:32.974Z,626.72
2023-04-27T07:36:31.963Z,631.47
2023-04-27T07:37:31.952Z,632.67
2023-04-27T07:38:31.928Z,630.28
2023-04-27T07:39:31.934Z,635.08
2023-04-27T07:40:31.921Z,638.12
2023-04-27T07:41:31.895Z,635.08
2023-04-27T07:42:31.877Z,636.90
2023-04-27T07:43:31.856Z,644.91
2023-04-27T07:44:31.857Z,652.48
2023-04-27T07:45:31.934Z,649.30
2023-04-27T07:46:31.813Z,658.93
2023-04-27T07:47:31.807Z,653.76
2023-04-27T07:48:31.797Z,648.04
2023-04-27T07:49:31.786Z,648.67
2023-04-27T07:50:31.764Z,644.28
2023-04-27T07:51:31.765Z,645.53
2023-04-27T07:52:31.741Z,643.04
2023-04-27T07:53:31.729Z,642.42
2023-04-27T07:54:31.744Z,643.04
2023-04-27T07:55:31.705Z,646.16
2023-04-27T07:56:31.696Z,646.16
2023-04-27T07:57:31.674Z,648.04
2023-04-27T07:58:31.643Z,655.04
2023-04-27T07:59:30.354Z,652.48
2023-04-27T08:00:31.620Z,658.93
2023-04-27T08:01:31.623Z,653.76
2023-04-27T08:02:30.286Z,650.57
2023-04-27T08:03:30.551Z,651.20
2023-04-27T08:04:31.951Z,656.98
2023-04-27T08:05:32.059Z,655.04
2023-04-27T08:06:32.105Z,657.63
2023-04-27T08:07:31.933Z,655.04
2023-04-27T08:08:31.512Z,654.40
2023-04-27T08:09:31.499Z,653.76
2023-04-27T08:10:30.373Z,652.48
2023-04-27T08:11:31.461Z,658.93
2023-04-27T08:12:31.459Z,660.23
2023-04-27T08:13:30.366Z,657.63
2023-04-27T08:14:31.442Z,653.12
2023-04-27T08:15:30.380Z,656.33
2023-04-27T08:16:31.467Z,650.57
2023-04-27T08:17:31.410Z,647.41
2023-04-27T08:18:30.383Z,646.16
2023-04-27T08:19:30.386Z,645.53
2023-04-27T08:20:31.364Z,646.16
2023-04-27T08:21:30.380Z,651.84
2023-04-27T08:22:30.381Z,652.48
2023-04-27T08:23:31.337Z,664.84
2023-04-27T08:24:31.318Z,658.28
2023-04-27T08:25:31.278Z,656.98
2023-04-27T08:26:29.856Z,661.54
2023-04-27T08:27:31.263Z,658.93
2023-04-27T08:28:31.245Z,666.17
2023-04-27T08:29:31.490Z,667.50
2023-04-27T08:30:31.217Z,668.17
2023-04-27T08:31:31.266Z,666.83
2023-04-27T08:32:31.193Z,667.50
2023-04-27T08:33:31.208Z,668.84
2023-04-27T08:34:30.103Z,673.57
2023-04-27T08:35:31.133Z,677.68
2023-04-27T08:36:31.143Z,688.17
2023-04-27T08:37:31.126Z,699.72
2023-04-27T08:38:31.103Z,693.90
2023-04-27T08:39:31.093Z,697.52
2023-04-27T08:40:31.087Z,697.52
2023-04-27T08:41:31.064Z,694.62
2023-04-27T08:42:31.040Z,697.52
2023-04-27T08:43:31.056Z,704.90
2023-04-27T08:44:31.053Z,704.15
2023-04-27T08:45:31.015Z,713.95
2023-04-27T08:46:31.020Z,727.19
2023-04-27T08:47:41.628Z,724.03
2023-04-27T08:48:32.079Z,740.93
2023-04-27T08:49:31.001Z,745.90
2023-04-27T08:50:31.013Z,748.32
2023-04-27T08:51:31.441Z,750.42
2023-04-27T08:52:30.988Z,762.86
2023-04-27T08:53:30.951Z,771.68
2023-04-27T08:54:30.926Z,770.78
2023-04-27T08:55:30.951Z,782.07
2023-04-27T08:56:30.940Z,789.47
2023-04-27T08:57:30.846Z,793.70
2023-04-27T08:58:30.821Z,797.02
2023-04-27T08:59:30.824Z,796.06
2023-04-27T09:00:30.814Z,797.49
2023-04-27T09:01:29.953Z,798.45
2023-04-27T09:02:30.823Z,799.40
2023-04-27T09:03:30.909Z,813.53
2023-04-27T09:04:30.879Z,803.25
2023-04-27T09:05:30.748Z,806.65
2023-04-27T09:06:30.747Z,823.06
2023-04-27T09:07:30.701Z,825.09
2023-04-27T09:08:30.702Z,838.04
2023-04-27T09:09:30.718Z,847.62
2023-04-27T09:10:30.672Z,851.95
2023-04-27T09:11:30.661Z,847.08
2023-04-27T09:12:30.646Z,851.40
2023-04-27T09:13:30.626Z,854.67
2023-04-27T09:14:29.168Z,861.85
2023-04-27T09:15:30.605Z,859.07
2023-04-27T09:16:30.661Z,873.12
2023-04-27T09:17:30.782Z,869.14
2023-04-27T09:18:30.557Z,871.41
2023-04-27T09:19:29.486Z,880.03
2023-04-27T09:20:30.552Z,885.87
2023-04-27T09:21:30.507Z,894.17
2023-04-27T09:22:29.523Z,909.40
2023-04-27T09:23:29.538Z,897.78
2023-04-27T09:24:30.478Z,911.89
2023-04-27T09:25:30.529Z,930.31
2023-04-27T09:26:30.452Z,937.50
2023-04-27T09:27:30.439Z,950.18
2023-04-27T09:28:30.427Z,955.62
2023-04-27T09:29:30.417Z,969.50
2023-04-27T09:30:28.950Z,970.20
2023-04-27T09:31:29.713Z,991.09
2023-04-27T09:32:30.383Z,996.27
2023-04-27T09:33:30.361Z,997.76
2023-04-27T09:34:30.351Z,992.57
2023-04-27T09:35:30.325Z,989.62
2023-04-27T09:36:30.305Z,991.09
2023-04-27T09:37:30.298Z,1000.00
2023-04-27T09:38:29.587Z,1006.03
2023-04-27T09:39:30.301Z,1014.44
2023-04-27T09:40:29.299Z,1046.24
2023-04-27T09:41:30.246Z,1071.43
2023-04-27T09:42:30.233Z,1091.58
2023-04-27T09:43:30.215Z,1108.80
2023-04-27T09:44:30.211Z,1115.29
2023-04-27T09:45:30.262Z,1125.63
2023-04-27T09:46:28.791Z,1146.91
2023-04-27T09:47:30.198Z,1170.03
2023-04-27T09:48:30.166Z,1212.53
2023-04-27T09:49:30.148Z,1271.43
2023-04-27T09:50:30.123Z,1320.47
2023-04-27T09:51:30.105Z,1345.77
2023-04-27T09:52:30.098Z,1345.77
2023-04-27T09:53:28.749Z,1351.21
2023-04-27T09:54:28.725Z,1337.68
2023-04-27T09:55:30.061Z,1339.02
2023-04-27T09:56:29.743Z,1394.98
2023-04-27T09:57:30.036Z,1418.70
2023-04-27T09:58:30.025Z,1440.13
2023-04-27T09:59:30.019Z,1451.09
2023-04-27T10:00:30.000Z,1468.65
2023-04-27T10:01:30.006Z,1468.65
2023-04-27T10:02:29.564Z,1505.07
2023-04-27T10:03:30.056Z,1505.07
2023-04-27T10:04:30.082Z,1511.04
2023-04-27T10:05:29.996Z,1519.64
2023-04-27T10:06:29.920Z,1547.83
2023-04-27T10:07:29.903Z,1553.23
2023-04-27T10:08:29.893Z,1580.82
2023-04-27T10:09:29.890Z,1562.32
2023-04-27T10:10:28.464Z,1582.69
2023-04-27T10:11:29.840Z,1586.45
2023-04-27T10:12:29.830Z,1588.34
2023-04-27T10:13:29.828Z,1583.63
2023-04-27T10:14:29.823Z,1555.04
2023-04-27T10:15:29.845Z,1507.62
2023-04-27T10:16:29.931Z,1517.91
2023-04-27T10:17:28.506Z,1503.38
2023-04-27T10:18:29.755Z,1510.18
2023-04-27T10:19:29.728Z,1527.46
2023-04-27T10:20:29.726Z,1522.23
2023-04-27T10:21:29.709Z,1546.93
2023-04-27T10:22:29.709Z,1557.76
2023-04-27T10:23:29.695Z,1565.98
2023-04-27T10:24:29.686Z,1570.59
2023-04-27T10:25:28.492Z,1577.08
2023-04-27T10:26:28.227Z,1585.51
2023-04-27T10:27:29.631Z,1575.22
2023-04-27T10:28:29.696Z,1589.29
2023-04-27T10:29:29.600Z,1582.69
2023-04-27T10:30:29.691Z,1606.50
2023-04-27T10:31:29.692Z,1615.24
2023-04-27T10:32:29.594Z,1616.22
2023-04-27T10:33:28.485Z,1636.03
2023-04-27T10:34:28.238Z,1646.12
2023-04-27T10:35:29.547Z,1662.52
2023-04-27T10:36:29.512Z,1653.25
2023-04-27T10:37:29.551Z,1654.28
2023-04-27T10:38:29.521Z,1659.42
2023-04-27T10:39:43.735Z,1685.61
2023-04-27T10:40:30.581Z,1697.39
2023-04-27T10:41:28.493Z,1653.25
2023-04-27T10:42:28.774Z,1633.03
2023-04-27T10:43:28.501Z,1658.39
2023-04-27T10:44:29.419Z,1685.61
2023-04-27T10:45:31.857Z,1709.35
2023-04-27T10:46:29.414Z,1761.21
2023-04-27T10:47:29.417Z,1775.27
2023-04-27T10:48:29.362Z,1745.10
2023-04-27T10:49:27.973Z,1757.73
2023-04-27T10:50:28.068Z,1747.38
2023-04-27T10:51:29.324Z,1729.28
2023-04-27T10:52:29.312Z,1739.41
2023-04-27T10:53:29.301Z,1749.67
2023-04-27T10:54:29.300Z,1731.52
2023-04-27T10:55:29.293Z,1771.73
2023-04-27T10:56:29.259Z,1772.91
2023-04-27T10:57:29.245Z,1775.27
2023-04-27T10:58:37.749Z,1772.91
2023-04-27T10:59:30.238Z,1749.67
2023-04-27T11:00:29.215Z,1762.38
2023-04-27T11:01:29.243Z,1718.15
2023-04-27T11:02:29.326Z,1695.24
2023-04-27T11:03:29.255Z,1714.84
2023-04-27T11:04:29.180Z,1711.54
2023-04-27T11:05:29.177Z,1697.39
2023-04-27T11:06:29.128Z,1720.36
2023-04-27T11:07:29.199Z,1741.68
2023-04-27T11:08:29.105Z,1738.28
2023-04-27T11:09:29.103Z,1721.47
2023-04-27T11:10:28.590Z,1700.64
2023-04-27T11:11:29.122Z,1712.64
2023-04-27T11:12:29.134Z,1707.16
2023-04-27T11:13:29.101Z,1715.94
2023-04-27T11:14:27.571Z,1742.82
2023-04-27T11:15:29.033Z,1687.74
2023-04-27T11:16:30.794Z,1712.64
2023-04-27T11:17:29.145Z,1711.54
2023-04-27T11:18:28.973Z,1749.67
2023-04-27T11:19:28.984Z,1763.54
2023-04-27T11:20:28.953Z,1750.82
2023-04-27T11:21:28.929Z,1742.82
2023-04-27T11:22:27.823Z,1729.28
2023-04-27T11:23:28.997Z,1706.07
2023-04-27T11:24:28.896Z,1710.44
2023-04-27T11:25:28.904Z,1708.25
2023-04-27T11:26:28.871Z,1715.94
2023-04-27T11:27:28.865Z,1704.98
2023-04-27T11:28:28.829Z,1713.74
2023-04-27T11:29:27.376Z,1741.68
2023-04-27T11:30:27.915Z,1750.82
2023-04-27T11:31:28.869Z,1775.27
2023-04-27T11:32:27.847Z,1760.05
2023-04-27T11:33:27.869Z,1751.97
2023-04-27T11:34:27.818Z,1747.38
2023-04-27T11:35:28.791Z,1733.77
2023-04-27T11:36:28.750Z,1708.25
2023-04-27T11:37:27.340Z,1678.19
2023-04-27T11:38:28.719Z,1658.39
2023-04-27T11:39:28.988Z,1653.25
2023-04-27T11:40:27.438Z,1664.59
2023-04-27T11:41:28.685Z,1632.03
2023-04-27T11:42:28.803Z,1603.60
2023-04-27T11:43:28.663Z,1582.69
2023-04-27T11:44:28.640Z,1575.22
2023-04-27T11:45:27.345Z,1566.90
2023-04-27T11:46:27.679Z,1583.63
2023-04-27T11:47:28.173Z,1590.23
2023-04-27T11:48:28.572Z,1597.85
2023-04-27T11:49:28.572Z,1623.10
2023-04-27T11:50:28.562Z,1621.13
2023-04-27T11:51:28.551Z,1609.40
2023-04-27T11:52:28.519Z,1621.13
2023-04-27T11:53:27.842Z,1611.35
2023-04-27T11:54:27.798Z,1584.57
2023-04-27T11:55:28.504Z,1568.74
2023-04-27T11:56:28.469Z,1614.27
2023-04-27T11:57:28.470Z,1604.57
2023-04-27T11:58:28.438Z,1633.03
2023-04-27T11:59:28.425Z,1603.60
2023-04-27T12:00:28.428Z,1602.64
2023-04-27T12:01:37.002Z,1601.68
2023-04-27T12:02:28.365Z,1618.18
2023-04-27T12:03:28.569Z,1633.03
2023-04-27T12:04:28.531Z,1633.03
2023-04-27T12:05:28.571Z,1645.10
2023-04-27T12:06:33.119Z,1618.18
2023-04-27T12:07:29.340Z,1618.18
2023-04-27T12:08:28.299Z,1613.29
2023-04-27T12:09:26.846Z,1614.27
2023-04-27T12:10:28.302Z,1622.11
2023-04-27T12:11:28.273Z,1588.34
2023-04-27T12:12:28.263Z,1607.46
2023-04-27T12:13:28.254Z,1613.29
2023-04-27T12:14:28.226Z,1602.64
2023-04-27T12:15:28.221Z,1602.64
2023-04-27T12:16:28.202Z,1607.46
2023-04-27T12:17:26.780Z,1579.88
2023-04-27T12:18:28.192Z,1569.67
2023-04-27T12:19:28.166Z,1567.82
2023-04-27T12:20:28.179Z,1566.90
2023-04-27T12:21:28.144Z,1567.82
2023-04-27T12:22:28.115Z,1600.72
2023-04-27T12:23:28.111Z,1617.20